createdAt,value
2022-08-30T00:01:35.552Z,-139.23
2022-08-30T00:05:03.015Z,-139.23
2022-08-30T00:08:27.492Z,-139.23
2022-08-30T00:11:53.341Z,-139.23
2022-08-30T00:15:19.784Z,-139.23
2022-08-30T00:18:45.457Z,-139.23
2022-08-30T00:22:13.205Z,-139.23
2022-08-30T00:25:39.480Z,-139.23
2022-08-30T00:29:05.517Z,-139.23
2022-08-30T00:32:31.231Z,-139.23
2022-08-30T00:35:57.320Z,-139.23
2022-08-30T00:39:24.915Z,-139.23
2022-08-30T00:42:52.876Z,-139.23
2022-08-30T00:46:24.528Z,-139.23
2022-08-30T00:49:52.830Z,-139.23
2022-08-30T00:53:25.624Z,-139.23
2022-08-30T00:56:52.770Z,-139.23
2022-08-30T01:00:18.796Z,-139.23
2022-08-30T01:03:45.539Z,-139.23
2022-08-30T01:07:11.704Z,-139.23
2022-08-30T01:10:38.121Z,-139.23
2022-08-30T01:14:00.486Z,-139.23
2022-08-30T01:17:26.699Z,-139.23
2022-08-30T01:20:49.468Z,-139.23
2022-08-30T01:24:19.288Z,-139.23
2022-08-30T01:27:49.762Z,-139.23
2022-08-30T01:31:16.908Z,-139.23
2022-08-30T01:34:43.232Z,-139.23
2022-08-30T01:37:48.341Z,-139.23
2022-08-30T01:41:17.031Z,-139.23
2022-08-30T01:44:43.201Z,-139.23
2022-08-30T01:48:09.396Z,-139.23
2022-08-30T01:51:35.595Z,-139.23
2022-08-30T01:55:02.053Z,-139.23
2022-08-30T01:58:30.819Z,-139.23
2022-08-30T02:01:57.328Z,-139.23
2022-08-30T02:05:23.333Z,-139.23
2022-08-30T02:08:48.198Z,-139.23
2022-08-30T02:12:15.263Z,-139.23
2022-08-30T02:15:43.025Z,-139.23
2022-08-30T02:19:09.861Z,-139.23
2022-08-30T02:22:40.338Z,-139.23
2022-08-30T02:26:14.104Z,-139.23
2022-08-30T02:29:40.444Z,-139.23
2022-08-30T02:33:06.561Z,-139.23
2022-08-30T02:36:32.711Z,-139.23
2022-08-30T02:39:58.636Z,-139.23
2022-08-30T02:43:24.596Z,-139.23
2022-08-30T02:46:49.807Z,-139.23
2022-08-30T02:50:10.833Z,14.48
2022-08-30T02:53:36.244Z,-139.23
2022-08-30T02:57:04.779Z,-139.23
2022-08-30T03:00:30.533Z,-139.23
2022-08-30T03:03:56.847Z,-139.23
2022-08-30T03:07:25.341Z,-139.23
2022-08-30T03:10:51.282Z,-139.23
2022-08-30T03:14:17.406Z,-139.23
2022-08-30T03:17:43.412Z,-139.23
2022-08-30T03:20:24.027Z,14.55
2022-08-30T03:23:07.521Z,14.55
2022-08-30T03:25:53.343Z,14.55
2022-08-30T03:29:19.358Z,-139.23
2022-08-30T03:32:07.622Z,14.55
2022-08-30T03:35:04.600Z,14.55
2022-08-30T03:37:41.992Z,14.55
2022-08-30T03:41:11.327Z,-139.23
2022-08-30T03:44:37.554Z,-139.23
2022-08-30T03:47:19.844Z,14.55
2022-08-30T03:50:45.878Z,-139.23
2022-08-30T03:53:38.233Z,14.55
2022-08-30T03:57:05.852Z,-139.23
2022-08-30T04:00:32.103Z,-139.23
2022-08-30T04:03:57.973Z,-139.23
2022-08-30T04:06:34.183Z,14.55
2022-08-30T04:10:00.750Z,-139.23
2022-08-30T04:13:28.378Z,-139.23
2022-08-30T04:16:54.760Z,-139.23
2022-08-30T04:20:20.669Z,-139.23
2022-08-30T04:23:12.847Z,14.55
2022-08-30T04:25:41.973Z,11.74
2022-08-30T04:29:02.313Z,-139.23
2022-08-30T04:32:01.409Z,11.74
2022-08-30T04:34:51.682Z,11.74
2022-08-30T04:38:18.367Z,-139.23
2022-08-30T04:41:48.440Z,-139.23
2022-08-30T04:45:17.378Z,-139.23
2022-08-30T04:48:42.890Z,-139.23
2022-08-30T04:52:10.899Z,-139.23
2022-08-30T04:55:37.572Z,-139.23
2022-08-30T04:59:04.205Z,-139.23
2022-08-30T05:02:32.429Z,-139.23
2022-08-30T05:05:17.525Z,13.77
2022-08-30T05:08:46.026Z,-139.23
2022-08-30T05:12:13.528Z,-139.23
2022-08-30T05:15:40.328Z,-139.23
2022-08-30T05:19:08.076Z,-139.23
2022-08-30T05:22:36.264Z,-139.23
2022-08-30T05:26:05.517Z,-139.23
2022-08-30T05:29:31.614Z,-139.23
2022-08-30T05:32:58.001Z,-139.23
2022-08-30T05:36:26.500Z,-139.23
2022-08-30T05:39:51.978Z,-139.23
2022-08-30T05:43:17.732Z,-139.23
2022-08-30T05:46:45.982Z,-139.23
2022-08-30T05:50:09.855Z,-139.23
2022-08-30T05:53:39.050Z,-139.23
2022-08-30T05:57:06.438Z,-139.23
2022-08-30T06:00:32.647Z,-139.23
2022-08-30T06:04:03.514Z,-139.23
2022-08-30T06:07:30.512Z,-139.23
2022-08-30T06:10:56.924Z,-139.23
2022-08-30T06:14:22.876Z,-139.23
2022-08-30T06:17:48.901Z,-139.23
2022-08-30T06:21:16.985Z,-139.23
2022-08-30T06:24:56.968Z,-139.23
2022-08-30T06:28:23.785Z,-139.23
2022-08-30T06:31:42.708Z,-139.23
2022-08-30T06:35:07.933Z,-139.23
2022-08-30T06:38:33.418Z,-139.23
2022-08-30T06:41:55.512Z,-139.23
2022-08-30T06:45:21.476Z,-139.23
2022-08-30T06:48:40.463Z,-139.23
2022-08-30T06:52:07.684Z,-139.23
2022-08-30T06:55:34.158Z,-139.23
2022-08-30T06:59:00.856Z,-139.23
2022-08-30T07:02:15.368Z,-139.23
2022-08-30T07:05:37.334Z,-139.23
2022-08-30T07:08:58.922Z,-139.23
2022-08-30T07:11:50.385Z,-139.23
2022-08-30T07:14:57.078Z,-139.23
2022-08-30T07:18:32.963Z,-139.23
2022-08-30T07:21:57.592Z,-139.23
2022-08-30T07:25:19.920Z,-139.23
2022-08-30T07:28:45.181Z,-139.23
2022-08-30T07:32:10.408Z,-139.23
2022-08-30T07:35:38.554Z,-139.23
2022-08-30T07:38:57.444Z,-139.23
2022-08-30T07:42:22.142Z,-139.23
2022-08-30T07:45:39.972Z,-139.23
2022-08-30T07:49:11.139Z,-139.23
2022-08-30T07:52:39.685Z,-139.23
2022-08-30T07:55:55.940Z,-139.23
2022-08-30T07:59:16.584Z,-139.23
2022-08-30T08:02:29.224Z,-139.23
2022-08-30T08:05:55.753Z,-139.23
2022-08-30T08:09:16.216Z,-139.23
2022-08-30T08:12:38.723Z,-139.23
2022-08-30T08:15:34.672Z,-139.23
2022-08-30T08:18:15.567Z,-139.23
2022-08-30T08:21:41.580Z,-139.23
2022-08-30T08:24:55.079Z,-139.23
2022-08-30T08:27:58.013Z,-139.23
2022-08-30T08:31:14.590Z,-139.23
2022-08-30T08:34:41.447Z,-139.23
2022-08-30T08:38:02.976Z,-139.23
2022-08-30T08:41:06.060Z,-139.23
2022-08-30T08:43:37.418Z,22.93
2022-08-30T08:46:11.379Z,23.06
2022-08-30T08:49:25.019Z,-139.23
2022-08-30T08:52:24.069Z,-139.23
2022-08-30T08:54:56.164Z,23.49
2022-08-30T08:57:34.338Z,23.75
2022-08-30T09:00:01.809Z,24.21
2022-08-30T09:02:34.811Z,24.57
2022-08-30T09:05:03.600Z,24.85
2022-08-30T09:07:37.852Z,25.32
2022-08-30T09:10:06.568Z,25.43
2022-08-30T09:12:35.647Z,25.68
2022-08-30T09:15:09.747Z,25.79
2022-08-30T09:17:52.041Z,24.94
2022-08-30T09:20:28.242Z,25.24
2022-08-30T09:22:57.196Z,26.24
2022-08-30T09:25:28.954Z,27.64
2022-08-30T09:28:11.281Z,27.41
2022-08-30T09:30:39.439Z,27.38
2022-08-30T09:33:20.072Z,27.70
2022-08-30T09:35:49.871Z,27.23
2022-08-30T09:38:19.671Z,26.45
2022-08-30T09:40:49.241Z,26.83
2022-08-30T09:43:25.636Z,26.69
2022-08-30T09:46:09.152Z,26.36
2022-08-30T09:48:40.374Z,26.73
2022-08-30T09:51:27.676Z,27.76
2022-08-30T09:54:17.025Z,28.28
2022-08-30T09:56:57.660Z,28.75
2022-08-30T09:59:40.566Z,28.54
2022-08-30T10:02:31.046Z,28.58
2022-08-30T10:05:11.060Z,28.76
2022-08-30T10:07:47.026Z,29.27
2022-08-30T10:10:20.136Z,30.00
2022-08-30T10:12:55.420Z,-139.23
2022-08-30T10:15:29.982Z,31.96
2022-08-30T10:18:07.199Z,32.21
2022-08-30T10:20:44.112Z,32.61
2022-08-30T10:23:14.911Z,32.18
2022-08-30T10:25:48.796Z,32.03
2022-08-30T10:28:23.686Z,31.39
2022-08-30T10:30:59.377Z,31.44
2022-08-30T10:33:31.840Z,30.22
2022-08-30T10:36:05.515Z,29.99
2022-08-30T10:38:41.839Z,30.23
2022-08-30T10:41:25.288Z,30.51
2022-08-30T10:43:58.765Z,30.94
2022-08-30T10:46:33.284Z,30.21
2022-08-30T10:49:06.832Z,30.35
2022-08-30T10:51:41.457Z,29.70
2022-08-30T10:54:20.995Z,30.73
2022-08-30T10:56:52.292Z,30.56
2022-08-30T10:59:21.327Z,31.00
2022-08-30T11:02:20.608Z,31.02
2022-08-30T11:05:09.065Z,31.90
2022-08-30T11:07:44.974Z,31.90
2022-08-30T11:10:47.847Z,32.22
2022-08-30T11:13:22.154Z,32.70
2022-08-30T11:15:57.854Z,33.48
2022-08-30T11:18:29.663Z,34.07
2022-08-30T11:21:22.319Z,33.22
2022-08-30T11:24:07.806Z,33.96
2022-08-30T11:26:57.369Z,-139.23
2022-08-30T11:29:43.360Z,33.69
2022-08-30T11:32:26.653Z,34.83
2022-08-30T11:35:00.123Z,34.68
2022-08-30T11:37:41.837Z,34.63
2022-08-30T11:40:32.568Z,33.43
2022-08-30T11:43:43.865Z,33.66
2022-08-30T11:46:17.606Z,33.34
2022-08-30T11:48:55.233Z,33.91
2022-08-30T11:52:08.437Z,34.88
2022-08-30T11:54:53.312Z,34.13
2022-08-30T11:57:30.672Z,34.27
2022-08-30T12:00:07.909Z,35.07
2022-08-30T12:02:53.269Z,34.49
2022-08-30T12:05:51.226Z,36.12
2022-08-30T12:08:49.170Z,37.04
2022-08-30T12:11:58.523Z,36.28
2022-08-30T12:14:54.376Z,35.96
2022-08-30T12:17:50.940Z,35.54
2022-08-30T12:20:24.289Z,35.46
2022-08-30T12:22:52.494Z,35.39
2022-08-30T12:25:26.904Z,35.93
2022-08-30T12:31:11.623Z,35.68
2022-08-30T12:33:43.730Z,35.49
2022-08-30T12:36:17.396Z,35.00
2022-08-30T12:38:51.351Z,35.91
2022-08-30T12:41:20.964Z,35.81
2022-08-30T12:47:01.886Z,35.55
2022-08-30T12:49:35.131Z,35.95
2022-08-30T12:52:17.340Z,36.63
2022-08-30T12:54:46.153Z,35.90
2022-08-30T12:57:35.397Z,36.39
2022-08-30T13:00:05.339Z,37.05
2022-08-30T13:02:46.833Z,38.21
2022-08-30T13:05:39.206Z,37.45
2022-08-30T13:08:19.510Z,39.67
2022-08-30T13:10:52.750Z,39.99
2022-08-30T13:13:35.178Z,39.76
2022-08-30T13:16:22.696Z,39.22
2022-08-30T13:18:53.363Z,39.00
2022-08-30T13:21:27.918Z,39.10
2022-08-30T13:24:00.105Z,39.69
2022-08-30T13:26:32.927Z,39.79
2022-08-30T13:29:02.757Z,40.49
2022-08-30T13:31:32.513Z,41.01
2022-08-30T13:34:02.399Z,41.11
2022-08-30T13:36:31.962Z,40.89
2022-08-30T13:39:00.746Z,40.41
2022-08-30T13:41:30.171Z,40.81
2022-08-30T13:44:13.268Z,40.76
2022-08-30T13:46:47.618Z,39.71
2022-08-30T13:52:21.062Z,39.69
2022-08-30T13:54:49.893Z,40.95
2022-08-30T13:57:53.688Z,40.70
2022-08-30T14:00:12.388Z,38.06
2022-08-30T14:02:45.476Z,39.11
2022-08-30T14:05:46.750Z,38.31
2022-08-30T14:08:44.513Z,39.60
2022-08-30T14:10:55.934Z,38.90
2022-08-30T14:13:23.493Z,38.78
2022-08-30T14:16:26.523Z,37.94
2022-08-30T14:18:40.232Z,37.38
2022-08-30T14:21:09.557Z,37.53
2022-08-30T14:23:37.099Z,39.24
2022-08-30T14:26:15.310Z,39.03
2022-08-30T14:28:45.915Z,38.02
2022-08-30T14:31:19.734Z,38.22
2022-08-30T14:33:54.803Z,37.24
2022-08-30T14:36:23.620Z,37.45
2022-08-30T14:38:52.229Z,37.78
2022-08-30T14:41:19.797Z,37.64
2022-08-30T14:43:48.308Z,37.73
2022-08-30T14:46:15.783Z,36.80
2022-08-30T14:48:43.914Z,36.43
2022-08-30T14:51:17.039Z,35.70
2022-08-30T14:53:47.562Z,35.90
2022-08-30T14:56:17.405Z,35.88
2022-08-30T14:58:48.795Z,35.04
2022-08-30T15:01:16.351Z,34.33
2022-08-30T15:03:43.923Z,34.91
2022-08-30T15:06:12.370Z,35.82
2022-08-30T15:08:40.320Z,36.73
2022-08-30T15:11:10.842Z,37.18
2022-08-30T15:13:38.477Z,36.48
2022-08-30T15:16:12.085Z,36.35
2022-08-30T15:18:41.681Z,36.04
2022-08-30T15:21:09.783Z,35.83
2022-08-30T15:23:37.551Z,34.89
2022-08-30T15:26:08.052Z,35.15
2022-08-30T15:28:38.202Z,35.33
2022-08-30T15:31:09.022Z,36.53
2022-08-30T15:33:37.124Z,36.22
2022-08-30T15:36:05.857Z,36.80
2022-08-30T15:38:36.130Z,37.16
2022-08-30T15:41:07.342Z,37.33
2022-08-30T15:43:35.902Z,37.42
2022-08-30T15:46:17.193Z,37.48
2022-08-30T15:48:47.294Z,37.29
2022-08-30T15:51:16.593Z,37.17
2022-08-30T15:53:44.239Z,36.32
2022-08-30T15:56:12.957Z,37.02
2022-08-30T15:58:41.903Z,37.53
2022-08-30T16:01:11.164Z,37.63
2022-08-30T16:03:41.464Z,37.88
2022-08-30T16:06:13.983Z,36.61
2022-08-30T16:08:42.136Z,35.89
2022-08-30T16:11:11.427Z,35.21
2022-08-30T16:13:40.087Z,35.43
2022-08-30T16:16:11.104Z,35.48
2022-08-30T16:18:39.794Z,36.53
2022-08-30T16:21:09.859Z,36.18
2022-08-30T16:23:39.069Z,36.13
2022-08-30T16:26:06.849Z,36.48
2022-08-30T16:28:35.365Z,37.07
2022-08-30T16:31:03.383Z,37.46
2022-08-30T16:33:39.938Z,37.71
2022-08-30T16:36:11.768Z,38.08
2022-08-30T16:38:40.188Z,37.50
2022-08-30T16:41:09.760Z,36.64
2022-08-30T16:43:38.885Z,36.18
2022-08-30T16:46:09.413Z,35.94
2022-08-30T16:48:40.996Z,34.75
2022-08-30T16:51:10.492Z,34.45
2022-08-30T16:53:39.232Z,33.94
2022-08-30T16:56:09.454Z,34.35
2022-08-30T16:58:37.649Z,33.15
2022-08-30T17:01:07.125Z,32.15
2022-08-30T17:03:39.776Z,32.46
2022-08-30T17:06:09.549Z,32.71
2022-08-30T17:08:36.955Z,33.01
2022-08-30T17:11:05.215Z,33.32
2022-08-30T17:13:36.586Z,33.06
2022-08-30T17:16:05.721Z,33.56
2022-08-30T17:18:33.612Z,33.67
2022-08-30T17:21:02.656Z,33.75
2022-08-30T17:23:30.649Z,33.63
2022-08-30T17:25:58.077Z,33.66
2022-08-30T17:28:25.504Z,33.01
2022-08-30T17:30:53.016Z,32.44
2022-08-30T17:33:20.919Z,31.69
2022-08-30T17:35:48.596Z,29.16
2022-08-30T17:38:17.712Z,26.80
2022-08-30T17:40:46.246Z,25.32
2022-08-30T17:43:13.700Z,23.97
2022-08-30T17:45:41.135Z,23.20
2022-08-30T17:48:08.517Z,22.56
2022-08-30T17:50:38.531Z,22.17
2022-08-30T17:53:06.189Z,-139.23
2022-08-30T17:55:35.564Z,-139.23
2022-08-30T17:58:02.960Z,-139.23
2022-08-30T18:00:30.512Z,-139.23
2022-08-30T18:02:57.975Z,-139.23
2022-08-30T18:05:27.297Z,-139.23
2022-08-30T18:07:55.266Z,-139.23
2022-08-30T18:10:27.232Z,18.75
2022-08-30T18:13:01.755Z,-139.23
2022-08-30T18:15:30.286Z,-139.23
2022-08-30T18:17:57.665Z,18.09
2022-08-30T18:20:26.395Z,-139.23
2022-08-30T18:22:55.522Z,-139.23
2022-08-30T18:25:22.988Z,-139.23
2022-08-30T18:27:58.210Z,-139.23
2022-08-30T18:30:41.458Z,17.29
2022-08-30T18:33:09.695Z,-139.23
2022-08-30T18:35:37.565Z,16.99
2022-08-30T18:38:05.172Z,16.85
2022-08-30T18:40:32.690Z,-139.23
2022-08-30T18:43:04.790Z,-139.23
2022-08-30T18:45:32.709Z,-139.23
2022-08-30T18:48:01.515Z,16.55
2022-08-30T18:50:30.950Z,16.58
2022-08-30T18:52:59.505Z,-139.23
2022-08-30T18:55:27.445Z,16.31
2022-08-30T18:57:54.920Z,16.34
2022-08-30T19:00:22.515Z,16.31
2022-08-30T19:02:49.995Z,16.45
2022-08-30T19:05:21.964Z,16.42
2022-08-30T19:07:52.051Z,16.35
2022-08-30T19:10:27.136Z,16.27
2022-08-30T19:12:55.215Z,16.36
2022-08-30T19:15:23.697Z,16.26
2022-08-30T19:17:51.079Z,16.03
2022-08-30T19:20:24.471Z,15.88
2022-08-30T19:23:09.058Z,15.94
2022-08-30T19:25:37.890Z,16.08
2022-08-30T19:28:05.936Z,16.18
2022-08-30T19:30:33.641Z,16.12
2022-08-30T19:33:01.084Z,16.18
2022-08-30T19:35:30.413Z,16.36
2022-08-30T19:37:58.373Z,16.49
2022-08-30T19:40:25.910Z,16.62
2022-08-30T19:42:53.509Z,16.64
2022-08-30T19:45:22.638Z,17.15
2022-08-30T19:47:51.859Z,17.14
2022-08-30T19:50:21.212Z,17.62
2022-08-30T19:52:54.807Z,17.62
2022-08-30T19:55:28.145Z,17.49
2022-08-30T19:57:56.429Z,17.31
2022-08-30T20:00:24.227Z,17.29
2022-08-30T20:02:52.155Z,17.60
2022-08-30T20:05:21.325Z,17.54
2022-08-30T20:07:50.880Z,17.51
2022-08-30T20:10:19.788Z,17.38
2022-08-30T20:12:49.815Z,17.25
2022-08-30T20:15:19.523Z,17.21
2022-08-30T20:18:05.630Z,17.37
2022-08-30T20:20:36.475Z,17.38
2022-08-30T20:23:06.948Z,17.44
2022-08-30T20:25:35.153Z,17.44
2022-08-30T20:28:03.221Z,17.37
2022-08-30T20:30:30.656Z,17.24
2022-08-30T20:32:58.362Z,17.19
2022-08-30T20:35:25.761Z,17.28
2022-08-30T20:37:53.240Z,17.33
2022-08-30T20:40:22.210Z,17.26
2022-08-30T20:42:49.794Z,17.06
2022-08-30T20:45:18.431Z,17.11
2022-08-30T20:47:45.965Z,17.21
2022-08-30T20:50:18.009Z,17.24
2022-08-30T20:52:47.155Z,17.22
2022-08-30T20:55:17.192Z,17.11
2022-08-30T20:57:45.914Z,17.09
2022-08-30T21:00:14.613Z,17.15
2022-08-30T21:02:46.852Z,17.15
2022-08-30T21:05:16.971Z,17.06
2022-08-30T21:07:45.547Z,17.04
2022-08-30T21:10:13.860Z,17.01
2022-08-30T21:12:42.701Z,17.04
2022-08-30T21:15:34.018Z,17.00
2022-08-30T21:18:00.691Z,17.14
2022-08-30T21:20:28.127Z,17.07
2022-08-30T21:22:57.924Z,17.15
2022-08-30T21:25:25.352Z,17.25
2022-08-30T21:27:53.588Z,17.27
2022-08-30T21:30:22.665Z,17.26
2022-08-30T21:32:50.064Z,17.13
2022-08-30T21:35:35.569Z,17.05
2022-08-30T21:38:04.260Z,16.96
2022-08-30T21:40:31.714Z,17.04
2022-08-30T21:43:02.540Z,17.12
2022-08-30T21:45:38.282Z,17.16
2022-08-30T21:48:05.962Z,17.07
2022-08-30T21:50:33.398Z,16.98
2022-08-30T21:53:00.996Z,17.03
2022-08-30T21:55:28.521Z,16.97
2022-08-30T21:57:56.115Z,16.90
2022-08-30T22:00:23.509Z,17.09
2022-08-30T22:02:57.479Z,16.86
2022-08-30T22:05:25.073Z,17.06
2022-08-30T22:07:52.474Z,17.09
2022-08-30T22:10:21.011Z,17.22
2022-08-30T22:12:50.789Z,17.12
2022-08-30T22:15:18.468Z,16.99
2022-08-30T22:17:45.895Z,17.02
2022-08-30T22:20:18.339Z,16.98
2022-08-30T22:22:46.236Z,16.82
2022-08-30T22:25:15.069Z,17.01
2022-08-30T22:27:42.472Z,16.78
2022-08-30T22:30:11.001Z,16.74
2022-08-30T22:32:38.464Z,16.50
2022-08-30T22:35:08.137Z,16.43
2022-08-30T22:37:36.880Z,16.58
2022-08-30T22:40:05.333Z,16.45
2022-08-30T22:42:32.877Z,16.44
2022-08-30T22:45:00.344Z,16.36
2022-08-30T22:47:27.835Z,16.44
2022-08-30T22:49:55.230Z,16.31
2022-08-30T22:52:24.116Z,16.40
2022-08-30T22:54:54.597Z,16.40
2022-08-30T22:57:21.993Z,16.31
2022-08-30T22:59:51.858Z,16.15
2022-08-30T23:02:19.475Z,16.04
2022-08-30T23:04:47.121Z,16.07
2022-08-30T23:07:14.937Z,16.03
2022-08-30T23:09:42.321Z,15.94
2022-08-30T23:12:11.033Z,15.87
2022-08-30T23:14:38.458Z,15.78
2022-08-30T23:17:05.966Z,15.83
2022-08-30T23:19:33.543Z,15.84
2022-08-30T23:22:00.934Z,15.70
2022-08-30T23:24:48.801Z,15.81
2022-08-30T23:27:37.970Z,15.82
2022-08-30T23:30:24.133Z,15.72
2022-08-30T23:33:09.073Z,15.61
2022-08-30T23:35:54.365Z,15.42
2022-08-30T23:38:39.941Z,15.36
2022-08-30T23:41:33.847Z,15.15
2022-08-30T23:44:20.984Z,15.04
2022-08-30T23:47:06.210Z,15.06
2022-08-30T23:49:51.635Z,14.94
2022-08-30T23:52:37.039Z,14.86
2022-08-30T23:55:22.834Z,14.77
2022-08-30T23:58:07.639Z,14.77
